Time;durP1;ratioP1;P1;durP2;ratioP2;P2;SDS_P1;SDS_P2;PMS_P1;PMS_P2;Temp;Humidity;BMP_temperature;BMP_pressure;BME280_temperature;BME280_humidity;BME280_pressure;Samples;Min_cycle;Max_cycle;Signal;HPM_P1;HPM_P2
2021/06/01 00:02:21;;;;;;;3.05;2.75;;;;;;;17.02;56.81;100202.97;5066550;28;20040;-77
2021/06/01 00:04:47;;;;;;;4.70;2.50;;;;;;;16.99;56.73;100198.00;5031194;28;20029;-77
2021/06/01 00:07:12;;;;;;;5.57;2.88;;;;;;;16.96;57.29;100193.09;5055341;28;20068;-77
2021/06/01 00:09:38;;;;;;;3.88;2.72;;;;;;;16.98;57.30;100193.56;5046268;28;20033;-77
2021/06/01 00:12:04;;;;;;;4.93;2.70;;;;;;;16.93;57.05;100191.78;5061298;28;20058;-77
2021/06/01 00:14:29;;;;;;;3.67;2.55;;;;;;;16.91;57.10;100190.50;5058568;28;20032;-77
2021/06/01 00:16:55;;;;;;;5.03;2.80;;;;;;;16.90;57.00;100191.66;5060594;28;20025;-77
2021/06/01 00:19:21;;;;;;;2.92;2.63;;;;;;;16.87;57.09;100187.56;5058173;28;20499;-77
2021/06/01 00:21:46;;;;;;;7.28;3.22;;;;;;;16.82;57.39;100186.97;5059367;28;20033;-78
2021/06/01 00:24:12;;;;;;;3.28;2.80;;;;;;;16.78;57.60;100183.22;5065875;28;20086;-77
2021/06/01 00:26:38;;;;;;;6.32;2.92;;;;;;;16.78;57.09;100186.84;5061503;28;20033;-77
2021/06/01 00:29:05;;;;;;;4.05;2.80;;;;;;;16.71;57.64;100175.31;5058241;28;20041;-78
2021/06/01 00:31:30;;;;;;;4.32;3.08;;;;;;;16.73;57.50;100173.81;5047621;28;20125;-78
2021/06/01 00:33:56;;;;;;;3.85;2.90;;;;;;;16.72;57.42;100172.19;5060266;28;20036;-78
2021/06/01 00:36:21;;;;;;;5.07;2.90;;;;;;;16.64;57.84;100175.06;5057877;28;20059;-78
2021/06/01 00:38:47;;;;;;;5.60;2.83;;;;;;;16.64;57.56;100173.06;5058207;28;20040;-78
2021/06/01 00:41:12;;;;;;;3.60;2.45;;;;;;;16.62;57.37;100161.38;5052398;28;20037;-78
2021/06/01 00:43:38;;;;;;;4.63;2.90;;;;;;;16.59;57.36;100167.66;5059991;28;20029;-78
2021/06/01 00:46:03;;;;;;;5.05;2.97;;;;;;;16.61;57.24;100159.75;5072278;28;20465;-78
2021/06/01 00:48:29;;;;;;;5.07;2.83;;;;;;;16.58;57.30;100163.22;5055138;28;20036;-78
2021/06/01 00:50:55;;;;;;;5.28;2.92;;;;;;;16.57;57.38;100157.97;5054497;28;20074;-78
2021/06/01 00:53:20;;;;;;;5.07;2.55;;;;;;;16.54;57.32;100159.47;5061090;28;20044;-78
2021/06/01 00:55:46;;;;;;;3.40;2.65;;;;;;;16.48;57.59;100156.03;5043718;28;20041;-78
2021/06/01 00:58:11;;;;;;;5.80;2.65;;;;;;;16.45;57.60;100162.34;5056983;28;20064;-78
2021/06/01 01:03:21;;;;;;;4.35;2.40;;;;;;;16.40;57.46;100154.13;5055511;28;20075;-78
2021/06/01 01:05:49;;;;;;;4.57;2.83;;;;;;;16.39;57.58;100151.69;5038893;28;20466;-78
2021/06/01 01:11:24;;;;;;;3.38;2.63;;;;;;;16.34;57.91;100149.09;5078258;28;20021;-79
2021/06/01 01:13:54;;;;;;;4.72;2.67;;;;;;;16.31;57.89;100145.78;5020601;28;20518;-79
2021/06/01 01:16:20;;;;;;;5.43;2.97;;;;;;;16.27;57.62;100147.66;5047563;28;20032;-79
2021/06/01 01:18:47;;;;;;;3.95;2.50;;;;;;;16.27;58.09;100150.47;5056718;28;20021;-79
2021/06/01 01:21:20;;;;;;;5.10;2.60;;;;;;;16.24;58.18;100153.94;5059797;28;20036;-77
2021/06/01 01:23:55;;;;;;;3.50;2.80;;;;;;;16.20;58.35;100149.34;5060574;28;20398;-78
2021/06/01 01:26:29;;;;;;;4.57;2.78;;;;;;;16.17;58.31;100150.84;5069332;28;20025;-78
2021/06/01 01:29:01;;;;;;;4.63;2.88;;;;;;;16.15;58.14;100146.75;5054160;28;20041;-77
2021/06/01 01:31:45;;;;;;;4.07;2.60;;;;;;;16.08;58.15;100148.13;5028450;28;20036;-78
2021/06/01 01:34:11;;;;;;;4.43;2.75;;;;;;;16.04;58.50;100149.13;5057323;28;20033;-78
2021/06/01 01:36:36;;;;;;;3.70;2.53;;;;;;;16.06;58.55;100142.03;5040956;28;20107;-78
2021/06/01 01:39:03;;;;;;;6.00;2.70;;;;;;;16.05;58.81;100139.56;5059682;28;20049;-78
2021/06/01 01:41:28;;;;;;;5.78;2.88;;;;;;;15.97;58.93;100138.47;5051469;28;20031;-78
2021/06/01 01:43:55;;;;;;;4.05;2.67;;;;;;;15.98;59.18;100142.09;5060974;28;20029;-78
2021/06/01 01:46:35;;;;;;;3.80;2.75;;;;;;;15.94;58.81;100135.53;5060842;28;20028;-78
2021/06/01 01:49:02;;;;;;;4.82;3.10;;;;;;;15.92;58.98;100133.06;5042060;28;20035;-77
2021/06/01 01:51:39;;;;;;;4.07;2.35;;;;;;;15.90;58.98;100123.34;5029596;28;20549;-78
2021/06/01 01:54:10;;;;;;;5.07;2.42;;;;;;;15.90;58.84;100124.16;5060999;28;20032;-78
2021/06/01 01:56:38;;;;;;;5.18;2.70;;;;;;;15.88;59.16;100122.88;5058413;28;20059;-78
2021/06/01 01:59:11;;;;;;;6.10;3.05;;;;;;;15.84;59.04;100114.34;5057838;28;20053;-78
2021/06/01 02:01:37;;;;;;;3.85;2.40;;;;;;;15.83;59.10;100113.50;5026570;28;20016;-78
2021/06/01 02:04:03;;;;;;;5.25;2.60;;;;;;;15.82;59.14;100111.88;5060035;28;20033;-78
2021/06/01 02:06:29;;;;;;;5.40;2.90;;;;;;;15.75;59.73;100117.19;5057342;28;20436;-78
2021/06/01 02:08:54;;;;;;;5.88;3.10;;;;;;;15.64;60.32;100116.72;5056511;28;20081;-78
2021/06/01 02:11:21;;;;;;;4.40;2.85;;;;;;;15.55;60.85;100112.34;5060574;28;20036;-78
2021/06/01 02:13:53;;;;;;;4.55;2.67;;;;;;;15.52;60.16;100113.03;5061389;28;20056;-77
2021/06/01 02:16:18;;;;;;;4.63;2.60;;;;;;;15.50;60.39;100110.53;5041792;28;20036;-77
2021/06/01 02:18:44;;;;;;;5.45;2.80;;;;;;;15.49;60.51;100105.25;5059968;28;20044;-81
2021/06/01 02:22:02;;;;;;;4.78;3.00;;;;;;;15.50;59.88;100109.72;5062013;28;20039;-78
2021/06/01 02:24:33;;;;;;;4.40;2.75;;;;;;;15.41;59.70;100099.41;5050695;28;20040;-78
2021/06/01 02:27:15;;;;;;;4.90;2.55;;;;;;;15.45;59.94;100102.34;5057306;28;20032;-77
2021/06/01 02:30:00;;;;;;;4.72;2.95;;;;;;;15.45;60.09;100104.31;5058496;28;20041;-78
2021/06/01 02:32:39;;;;;;;5.72;2.60;;;;;;;15.40;60.38;100094.94;5052459;28;20035;-78
2021/06/01 02:35:29;;;;;;;6.63;2.60;;;;;;;15.34;60.04;100095.47;5060479;28;20083;-78
2021/06/01 02:37:55;;;;;;;4.18;2.97;;;;;;;15.30;60.27;100086.13;5057226;28;20066;-78
2021/06/01 02:40:21;;;;;;;5.03;3.13;;;;;;;15.22;60.67;100086.97;5038446;28;20025;-78
2021/06/01 02:42:47;;;;;;;6.35;2.80;;;;;;;15.18;60.18;100078.41;5061291;28;20029;-78
2021/06/01 02:45:17;;;;;;;5.22;3.10;;;;;;;15.11;60.94;100080.94;5054171;28;20061;-78
2021/06/01 02:47:43;;;;;;;5.15;2.60;;;;;;;15.07;61.33;100071.56;5049712;28;20029;-80
2021/06/01 02:50:10;;;;;;;4.80;3.03;;;;;;;14.90;62.07;100064.06;5024037;28;20033;-78
2021/06/01 02:52:36;;;;;;;3.70;3.05;;;;;;;14.89;61.86;100059.63;5064078;28;20032;-77
2021/06/01 02:55:04;;;;;;;8.18;3.50;;;;;;;14.79;62.78;100058.00;5055999;28;20025;-77
2021/06/01 02:57:29;;;;;;;4.15;3.00;;;;;;;14.82;62.13;100056.50;5062753;28;20551;-77
2021/06/01 02:59:55;;;;;;;4.38;2.85;;;;;;;14.82;61.51;100051.75;5053162;28;20020;-78
2021/06/01 03:02:20;;;;;;;6.90;3.03;;;;;;;14.88;61.53;100056.00;5057282;28;20463;-78
2021/06/01 03:04:50;;;;;;;2.97;2.55;;;;;;;14.91;60.84;100055.34;5059549;28;20024;-78
2021/06/01 03:07:15;;;;;;;4.43;2.70;;;;;;;14.90;60.91;100053.69;5055146;28;20028;-78
2021/06/01 03:09:41;;;;;;;6.32;2.83;;;;;;;14.90;61.04;100052.88;5060045;28;20036;-78
2021/06/01 03:12:08;;;;;;;4.80;2.80;;;;;;;14.91;61.15;100060.94;5059297;28;20022;-78
2021/06/01 03:14:34;;;;;;;4.80;2.90;;;;;;;14.93;61.02;100058.63;5049810;28;20064;-78
2021/06/01 03:16:59;;;;;;;5.50;2.95;;;;;;;14.90;60.84;100053.69;5068848;28;20031;-78
2021/06/01 03:19:25;;;;;;;4.53;2.65;;;;;;;14.91;60.76;100054.53;5064237;28;20542;-78
2021/06/01 03:21:50;;;;;;;4.57;2.42;;;;;;;14.89;61.13;100056.81;5057071;28;20032;-78
2021/06/01 03:24:15;;;;;;;4.47;2.75;;;;;;;14.88;61.19;100056.00;5063340;28;20043;-78
2021/06/01 03:26:41;;;;;;;5.15;2.60;;;;;;;14.90;61.04;100058.47;5059455;28;20036;-79
2021/06/01 03:29:06;;;;;;;4.13;2.67;;;;;;;14.91;61.02;100055.34;5061079;28;20044;-79
2021/06/01 03:31:32;;;;;;;5.72;3.15;;;;;;;14.87;61.14;100057.16;5061790;28;20056;-79
2021/06/01 03:33:58;;;;;;;4.15;2.53;;;;;;;14.86;61.24;100063.91;5058055;28;20411;-78
2021/06/01 03:36:23;;;;;;;6.32;2.72;;;;;;;14.85;60.68;100062.28;5058257;28;20398;-78
2021/06/01 03:38:51;;;;;;;4.95;2.88;;;;;;;14.82;61.08;100057.34;5088359;28;20049;-78
2021/06/01 03:41:16;;;;;;;3.90;2.38;;;;;;;14.84;61.00;100057.81;5065216;28;20086;-78
2021/06/01 03:43:42;;;;;;;4.82;2.58;;;;;;;14.85;61.24;100058.63;5062776;28;20020;-78
2021/06/01 03:46:08;;;;;;;4.90;2.88;;;;;;;14.80;61.25;100048.47;5059751;28;20092;-78
2021/06/01 03:48:33;;;;;;;7.32;2.70;;;;;;;14.84;61.03;100049.44;5045258;28;20082;-78
2021/06/01 03:50:59;;;;;;;5.55;2.72;;;;;;;14.78;61.38;100053.56;5061216;28;20394;-78
2021/06/01 03:53:28;;;;;;;7.72;2.53;;;;;;;14.75;61.06;100048.66;5058250;28;20036;-78
2021/06/01 03:55:53;;;;;;;4.50;2.35;;;;;;;14.75;61.49;100057.03;5068163;28;20032;-78
2021/06/01 03:58:20;;;;;;;8.38;3.08;;;;;;;14.69;61.68;100050.81;5045654;28;20036;-78
2021/06/01 04:00:45;;;;;;;6.45;2.65;;;;;;;14.71;61.50;100044.91;5059828;28;20036;-78
2021/06/01 04:03:11;;;;;;;3.65;2.67;;;;;;;14.68;61.51;100039.94;5063742;28;20025;-78
2021/06/01 04:05:36;;;;;;;3.58;2.30;;;;;;;14.67;61.92;100044.72;5044687;28;20036;-78
2021/06/01 04:08:05;;;;;;;6.47;2.70;;;;;;;14.65;61.71;100041.44;5061039;28;20052;-78
2021/06/01 04:10:31;;;;;;;3.80;2.72;;;;;;;14.60;61.78;100035.19;5058259;28;20033;-78
2021/06/01 04:12:56;;;;;;;6.45;2.92;;;;;;;14.56;61.93;100035.03;5055056;28;20037;-78
2021/06/01 04:15:22;;;;;;;5.43;2.58;;;;;;;14.58;61.81;100040.31;5061398;28;20478;-78
2021/06/01 04:17:47;;;;;;;5.25;2.67;;;;;;;14.59;61.58;100039.16;5047896;28;20032;-76
2021/06/01 04:20:13;;;;;;;6.20;2.80;;;;;;;14.60;61.88;100029.59;5063393;28;20029;-76
2021/06/01 04:22:38;;;;;;;5.80;2.92;;;;;;;14.61;61.71;100029.28;5059984;28;20033;-76
2021/06/01 04:25:06;;;;;;;5.28;2.72;;;;;;;14.62;61.75;100032.91;5048541;28;20505;-77
2021/06/01 04:27:31;;;;;;;3.65;2.42;;;;;;;14.61;62.06;100022.88;5059085;28;20037;-77
2021/06/01 04:29:57;;;;;;;6.55;2.80;;;;;;;14.64;62.51;100019.41;5062281;28;20090;-76
2021/06/01 04:32:22;;;;;;;4.65;3.20;;;;;;;14.64;62.39;100022.22;5021814;28;20021;-76
2021/06/01 04:34:48;;;;;;;4.55;2.92;;;;;;;14.67;62.39;100013.16;5096264;28;20086;-76
2021/06/01 04:37:13;;;;;;;3.90;2.72;;;;;;;14.74;62.67;100019.06;5056512;28;20029;-76
2021/06/01 04:39:39;;;;;;;4.82;2.72;;;;;;;14.82;62.32;100012.63;5065231;28;20090;-76
2021/06/01 04:42:04;;;;;;;5.35;3.22;;;;;;;14.89;62.92;100009.31;5061263;28;20481;-77
2021/06/01 04:44:30;;;;;;;6.63;2.90;;;;;;;14.99;63.11;100011.72;5057405;28;20482;-76
2021/06/01 04:46:55;;;;;;;6.22;2.63;;;;;;;15.11;62.31;100009.03;5064074;28;20033;-77
2021/06/01 04:49:21;;;;;;;4.97;2.70;;;;;;;15.23;61.81;100013.91;5059311;28;20469;-76
2021/06/01 04:51:46;;;;;;;4.65;2.58;;;;;;;15.37;60.95;100017.28;5057760;28;20040;-77
2021/06/01 04:54:12;;;;;;;6.45;2.85;;;;;;;15.51;60.93;100008.63;5062917;28;20032;-77
2021/06/01 04:56:37;;;;;;;4.53;2.60;;;;;;;15.64;60.82;100004.75;5067799;28;20043;-77
2021/06/01 04:59:03;;;;;;;7.15;3.00;;;;;;;15.76;60.35;100009.63;5057246;28;20497;-77
2021/06/01 05:01:29;;;;;;;7.22;2.72;;;;;;;15.89;59.52;100009.72;5058793;28;20032;-77
2021/06/01 05:03:54;;;;;;;5.47;2.70;;;;;;;16.02;59.71;100011.44;5053920;28;20232;-76
2021/06/01 05:06:21;;;;;;;3.78;2.40;;;;;;;16.14;59.19;100014.25;5042052;28;20432;-76
2021/06/01 05:08:46;;;;;;;3.13;2.60;;;;;;;16.27;59.06;100010.34;5060845;28;20037;-76
2021/06/01 05:11:12;;;;;;;4.50;2.35;;;;;;;16.41;58.60;100015.66;5054116;28;20033;-76
2021/06/01 05:13:37;;;;;;;9.48;2.85;;;;;;;16.56;58.46;100019.78;5075867;28;20032;-76
2021/06/01 05:16:03;;;;;;;4.30;2.60;;;;;;;16.72;57.80;100014.34;5058475;28;20029;-76
2021/06/01 05:18:29;;;;;;;3.63;2.40;;;;;;;16.88;57.74;100017.28;5058693;28;20029;-76
2021/06/01 05:20:54;;;;;;;5.32;2.67;;;;;;;17.04;57.53;100004.22;5063535;28;20028;-77
2021/06/01 05:23:20;;;;;;;6.43;2.70;;;;;;;17.20;56.98;100007.16;5057687;28;20472;-76
2021/06/01 05:25:46;;;;;;;4.35;2.55;;;;;;;17.36;56.78;100001.66;5060352;28;20052;-75
2021/06/01 05:28:11;;;;;;;8.70;2.40;;;;;;;17.50;56.55;100001.31;5025293;28;20021;-76
2021/06/01 05:31:27;;;;;;;4.72;2.53;;;;;;;17.66;56.30;100002.19;5062732;28;20450;-75
2021/06/01 05:33:26;;;;;;;4.80;2.63;;;;;;;17.85;55.71;99993.16;5054446;28;20489;-77
2021/06/01 05:35:53;;;;;;;3.30;1.83;;;;;;;18.00;55.47;99988.81;5058541;28;20116;-77
2021/06/01 05:38:23;;;;;;;6.57;2.38;;;;;;;18.17;55.43;99991.31;5059260;28;20500;-77
2021/06/01 05:40:49;;;;;;;4.18;2.30;;;;;;;18.33;55.40;99991.34;5054861;28;20032;-74
2021/06/01 05:43:15;;;;;;;5.13;2.47;;;;;;;18.46;55.45;99994.91;5057843;28;20041;-75
2021/06/01 05:45:40;;;;;;;5.95;2.38;;;;;;;18.63;54.94;99996.56;5062860;28;20025;-72
2021/06/01 05:48:07;;;;;;;7.15;2.17;;;;;;;18.74;55.67;99992.06;5058061;28;20493;-73
2021/06/01 05:50:33;;;;;;;5.05;2.30;;;;;;;18.87;55.74;99987.19;5039940;28;20489;-72
2021/06/01 05:52:59;;;;;;;3.75;2.20;;;;;;;18.98;55.38;99989.09;5059257;28;20029;-72
2021/06/01 05:55:25;;;;;;;3.88;2.30;;;;;;;19.08;55.64;99982.06;5058884;28;20518;-71
2021/06/01 05:57:50;;;;;;;8.90;2.80;;;;;;;19.20;55.91;99984.00;5062267;28;20058;-72
2021/06/01 06:00:17;;;;;;;10.85;2.42;;;;;;;19.31;56.12;99978.63;5054509;28;20025;-72
2021/06/01 06:02:42;;;;;;;6.43;2.30;;;;;;;19.40;56.23;99976.41;5085404;28;20052;-72
2021/06/01 06:05:08;;;;;;;8.45;2.60;;;;;;;19.53;55.99;99977.09;5060704;28;20029;-73
2021/06/01 06:07:34;;;;;;;8.27;2.63;;;;;;;19.61;55.95;99978.88;5058201;28;20118;-72
2021/06/01 06:09:59;;;;;;;4.55;2.20;;;;;;;19.73;55.93;99975.19;5055257;28;20083;-72
2021/06/01 06:12:25;;;;;;;7.75;2.28;;;;;;;19.81;55.71;99980.59;5061806;28;20032;-70
2021/06/01 06:14:50;;;;;;;9.30;2.47;;;;;;;19.89;54.88;99981.53;5083851;28;20086;-76
2021/06/01 06:17:29;;;;;;;5.88;2.63;;;;;;;19.99;54.43;99980.97;5041032;28;20021;-76
2021/06/01 06:19:59;;;;;;;4.93;2.10;;;;;;;20.08;54.06;99983.56;5055441;28;20040;-76
2021/06/01 06:22:24;;;;;;;7.25;2.22;;;;;;;20.15;53.73;99986.53;5055416;28;20096;-74
2021/06/01 06:24:50;;;;;;;6.47;2.30;;;;;;;20.26;53.47;99983.94;5059229;28;20036;-76
2021/06/01 06:27:17;;;;;;;6.47;2.95;;;;;;;20.23;52.85;99987.50;5057068;28;20103;-76
2021/06/01 06:29:46;;;;;;;5.63;2.20;;;;;;;20.25;52.68;99982.28;5036962;28;20072;-76
2021/06/01 06:32:11;;;;;;;3.53;2.40;;;;;;;20.28;53.04;99976.72;5045044;28;20029;-76
2021/06/01 06:34:37;;;;;;;6.43;2.50;;;;;;;20.41;53.72;99976.56;5046395;28;20053;-76
2021/06/01 06:37:04;;;;;;;5.10;2.53;;;;;;;20.46;52.55;99967.78;5062242;28;20099;-75
2021/06/01 06:39:30;;;;;;;5.50;2.22;;;;;;;20.55;52.31;99971.22;5058925;28;20044;-73
2021/06/01 06:41:55;;;;;;;7.00;2.47;;;;;;;20.70;52.44;99969.47;5055858;28;20028;-72
2021/06/01 06:44:21;;;;;;;5.38;2.30;;;;;;;20.85;52.47;99976.19;5057535;28;20397;-71
2021/06/01 06:47:03;;;;;;;3.83;2.40;;;;;;;20.85;51.98;99979.81;5048459;28;20029;-72
2021/06/01 06:49:28;;;;;;;5.60;2.28;;;;;;;21.04;51.52;99981.75;5058746;28;20029;-72
2021/06/01 06:51:54;;;;;;;5.60;2.50;;;;;;;21.13;51.88;99978.66;5047984;28;20079;-72
2021/06/01 06:54:19;;;;;;;5.85;2.97;;;;;;;21.10;52.14;99985.06;5046446;28;20032;-73
2021/06/01 06:56:45;;;;;;;3.05;2.10;;;;;;;21.27;52.22;99981.72;5063741;28;20033;-73
2021/06/01 06:59:10;;;;;;;5.43;2.42;;;;;;;21.48;51.66;99983.25;5031309;28;20032;-75
2021/06/01 07:01:37;;;;;;;5.32;2.05;;;;;;;21.59;51.79;99982.25;5044795;28;20025;-73
2021/06/01 07:04:02;;;;;;;5.40;2.53;;;;;;;21.72;51.54;99990.47;5063210;28;20043;-74
2021/06/01 07:06:28;;;;;;;6.70;2.70;;;;;;;21.88;51.30;99981.81;5043409;28;20033;-78
2021/06/01 07:08:54;;;;;;;4.32;2.47;;;;;;;21.99;50.72;99977.94;5009331;28;20028;-76
2021/06/01 07:11:19;;;;;;;5.32;2.85;;;;;;;22.16;50.29;99970.06;5056607;28;20080;-76
2021/06/01 07:13:49;;;;;;;5.15;2.53;;;;;;;22.29;50.64;99982.78;5057127;28;20094;-76
2021/06/01 07:16:14;;;;;;;8.85;2.90;;;;;;;22.34;49.92;99973.91;5054511;28;20532;-76
2021/06/01 07:18:41;;;;;;;6.28;2.47;;;;;;;22.37;50.43;99975.16;5095581;28;20052;-77
2021/06/01 07:21:07;;;;;;;4.15;2.50;;;;;;;22.58;49.96;99978.22;5053795;28;20033;-76
2021/06/01 07:23:33;;;;;;;5.57;2.50;;;;;;;22.70;50.51;99968.63;5050816;28;20037;-76
2021/06/01 07:25:59;;;;;;;5.13;2.63;;;;;;;22.80;48.96;99982.09;5065749;28;20035;-76
2021/06/01 07:28:25;;;;;;;8.27;2.70;;;;;;;22.86;48.37;99974.03;5040671;28;20021;-75
2021/06/01 07:30:51;;;;;;;9.07;2.90;;;;;;;23.03;48.89;99981.09;5065658;28;20040;-76
2021/06/01 07:33:17;;;;;;;4.03;2.53;;;;;;;23.10;48.63;99978.34;5059881;28;20025;-76
2021/06/01 07:35:42;;;;;;;9.40;3.00;;;;;;;23.20;48.42;99972.72;5061675;28;20033;-76
2021/06/01 07:38:10;;;;;;;4.97;2.45;;;;;;;23.34;48.30;99972.03;5065027;28;20041;-76
2021/06/01 07:40:40;;;;;;;5.45;2.65;;;;;;;23.46;48.25;99979.41;5057735;28;20028;-76
2021/06/01 07:43:05;;;;;;;6.68;2.78;;;;;;;23.61;48.17;99974.63;5064700;28;20547;-76
2021/06/01 07:45:32;;;;;;;3.60;2.00;;;;;;;23.58;48.54;99964.09;5063994;28;20033;-76
2021/06/01 07:47:58;;;;;;;6.47;2.38;;;;;;;23.80;47.83;99963.03;5031765;28;20033;-76
2021/06/01 07:50:24;;;;;;;4.72;2.20;;;;;;;23.84;47.74;99963.84;5067363;28;20067;-76
2021/06/01 07:52:49;;;;;;;4.40;2.13;;;;;;;23.94;47.61;99965.13;5059954;28;20052;-76
2021/06/01 07:55:15;;;;;;;4.03;2.47;;;;;;;24.08;47.53;99956.69;5063061;28;20033;-75
2021/06/01 07:57:40;;;;;;;7.30;2.10;;;;;;;24.28;46.95;99950.66;5030502;28;20032;-76
2021/06/01 08:00:08;;;;;;;10.48;3.75;;;;;;;24.43;46.30;99945.81;5054527;28;20028;-75
2021/06/01 08:02:34;;;;;;;4.07;3.03;;;;;;;24.41;46.13;99942.59;5043852;28;20033;-72
2021/06/01 08:05:00;;;;;;;6.93;3.05;;;;;;;24.46;46.81;99939.38;5061696;28;20041;-72
2021/06/01 08:07:25;;;;;;;7.07;3.53;;;;;;;24.60;45.49;99930.06;5056987;28;20032;-72
2021/06/01 08:09:51;;;;;;;7.25;2.80;;;;;;;24.54;46.62;99923.97;5047121;28;20060;-72
2021/06/01 08:12:17;;;;;;;6.85;3.40;;;;;;;24.78;47.06;99924.41;5047121;28;20036;-72
2021/06/01 08:14:43;;;;;;;7.85;3.58;;;;;;;24.92;47.44;99921.56;5060044;28;20158;-72
2021/06/01 08:17:09;;;;;;;7.85;3.55;;;;;;;25.00;47.13;99928.88;5062662;28;20040;-72
2021/06/01 08:19:39;;;;;;;6.68;3.75;;;;;;;25.10;47.48;99925.22;5059856;28;20142;-71
2021/06/01 08:24:48;;;;;;;7.10;2.60;;;;;;;25.21;46.18;99919.53;5061009;28;20036;-72
2021/06/01 08:27:14;;;;;;;6.72;2.95;;;;;;;25.32;46.62;99923.19;5065025;28;20024;-72
2021/06/01 08:29:39;;;;;;;7.72;2.70;;;;;;;25.34;46.30;99928.47;5044897;28;20036;-71
2021/06/01 08:32:05;;;;;;;6.15;3.22;;;;;;;25.48;46.24;99911.38;5060184;28;20028;-69
2021/06/01 08:34:31;;;;;;;12.20;4.93;;;;;;;25.31;47.29;99912.22;5023365;28;20461;-68
2021/06/01 08:36:57;;;;;;;9.05;3.67;;;;;;;25.21;46.60;99910.22;5066158;28;20056;-68
2021/06/01 08:39:28;;;;;;;5.95;2.97;;;;;;;24.99;46.90;99913.06;5061182;28;20056;-68
2021/06/01 08:41:54;;;;;;;4.20;2.60;;;;;;;24.85;46.66;99901.69;5044555;28;20029;-68
2021/06/01 08:44:20;;;;;;;8.25;2.95;;;;;;;24.81;46.55;99904.53;5062927;28;20496;-68
2021/06/01 08:46:49;;;;;;;6.45;2.50;;;;;;;24.73;46.77;99909.41;5038960;28;20032;-68
2021/06/01 08:49:15;;;;;;;6.15;2.70;;;;;;;24.71;47.04;99891.97;5080300;28;20025;-68
2021/06/01 08:51:41;;;;;;;7.70;2.60;;;;;;;24.48;47.56;99894.38;5059878;28;20437;-68
2021/06/01 08:54:07;;;;;;;5.90;2.85;;;;;;;24.52;47.42;99892.38;5043072;28;20095;-68
2021/06/01 08:56:32;;;;;;;5.13;2.20;;;;;;;24.53;46.99;99899.66;5064058;28;20033;-68
2021/06/01 08:58:58;;;;;;;4.40;2.55;;;;;;;24.64;47.33;99891.97;5061261;28;20562;-68
2021/06/01 09:01:23;;;;;;;3.67;2.50;;;;;;;24.67;47.77;99888.31;5029874;28;20033;-69
2021/06/01 09:03:52;;;;;;;8.48;2.20;;;;;;;24.59;47.75;99892.34;5050095;28;20485;-69
2021/06/01 09:06:22;;;;;;;5.53;2.15;;;;;;;24.68;46.95;99889.94;5023522;28;20032;-68
2021/06/01 09:14:52;;;;;;;5.53;2.45;;;;;;;24.74;47.00;99888.31;5042498;28;20294;-68
2021/06/01 09:22:35;;;;;;;5.05;2.33;;;;;;;24.68;46.85;99883.44;5059599;28;20031;-68
2021/06/01 09:25:05;;;;;;;5.40;2.30;;;;;;;24.78;46.81;99879.78;5059174;28;20029;-68
2021/06/01 09:27:47;;;;;;;5.57;2.80;;;;;;;24.78;47.07;99882.63;5063822;28;20084;-68
2021/06/01 09:30:39;;;;;;;5.15;2.47;;;;;;;24.84;46.61;99877.34;5025929;28;20392;-68
2021/06/01 09:33:26;;;;;;;3.78;2.10;;;;;;;24.98;46.33;99892.34;5058556;28;20033;-68
2021/06/01 09:35:58;;;;;;;5.03;2.40;;;;;;;25.08;46.27;99892.75;5040789;28;20044;-68
2021/06/01 09:38:36;;;;;;;13.27;8.63;;;;;;;25.14;46.58;99886.28;5028834;28;20052;-68
2021/06/01 09:41:06;;;;;;;10.80;7.38;;;;;;;25.25;46.21;99888.31;5053170;28;20035;-68
2021/06/01 09:43:33;;;;;;;8.20;4.22;;;;;;;25.33;46.26;99875.69;5053506;28;20044;-69
2021/06/01 09:46:17;;;;;;;5.28;3.63;;;;;;;25.42;46.16;99873.22;5054309;28;20480;-68
2021/06/01 09:48:43;;;;;;;5.38;3.10;;;;;;;25.46;45.58;99874.00;5021444;28;20079;-69
2021/06/01 09:51:10;;;;;;;5.68;3.20;;;;;;;25.37;45.56;99871.59;5057744;28;20029;-68
2021/06/01 09:53:37;;;;;;;6.97;2.40;;;;;;;25.47;45.30;99869.97;5047737;28;20460;-68
2021/06/01 09:56:03;;;;;;;5.53;2.60;;;;;;;25.53;45.51;99873.19;5065614;28;20024;-68
2021/06/01 09:58:33;;;;;;;4.75;2.88;;;;;;;25.62;45.49;99868.69;5028595;28;20458;-68
2021/06/01 10:01:00;;;;;;;3.65;2.20;;;;;;;25.66;45.62;99868.69;5037145;28;20035;-68
2021/06/01 10:03:33;;;;;;;6.45;2.33;;;;;;;25.71;45.67;99864.59;5045394;28;20041;-68
2021/06/01 10:05:59;;;;;;;6.75;2.50;;;;;;;25.72;45.97;99867.03;5029372;28;20036;-68
2021/06/01 10:08:25;;;;;;;4.60;2.50;;;;;;;25.80;45.71;99867.81;5021049;28;20026;-68
2021/06/01 10:10:59;;;;;;;5.60;2.35;;;;;;;25.77;45.54;99874.31;5039163;28;20448;-68
2021/06/01 10:13:27;;;;;;;6.05;2.58;;;;;;;25.75;45.37;99876.75;5027516;28;20079;-68
2021/06/01 10:15:54;;;;;;;7.13;2.50;;;;;;;25.84;45.29;99868.63;5057707;28;20029;-69
2021/06/01 10:18:20;;;;;;;6.40;2.50;;;;;;;25.85;45.16;99876.75;5075388;28;20033;-68
2021/06/01 10:20:47;;;;;;;4.25;2.58;;;;;;;25.99;45.17;99870.19;5050206;28;20033;-68
2021/06/01 10:23:14;;;;;;;4.75;2.63;;;;;;;26.05;45.40;99859.97;5048589;28;20104;-68
2021/06/01 10:25:39;;;;;;;4.70;3.17;;;;;;;26.13;45.34;99857.88;5049606;28;20044;-69
2021/06/01 10:28:08;;;;;;;5.20;2.78;;;;;;;26.28;45.53;99859.41;5026156;28;20481;-69
2021/06/01 10:30:36;;;;;;;6.43;2.42;;;;;;;26.27;45.71;99857.81;5034964;28;20371;-68
2021/06/01 10:33:03;;;;;;;5.95;2.80;;;;;;;26.21;45.12;99862.31;5080080;28;20021;-68
2021/06/01 10:35:36;;;;;;;6.32;2.30;;;;;;;26.45;43.82;99851.97;5030202;28;20036;-75
2021/06/01 10:51:59;;;;;;;6.15;2.05;;;;;;;27.91;40.66;99839.50;5052027;28;20029;-76
2021/06/01 10:54:45;;;;;;;2.97;1.95;;;;;;;28.16;40.44;99837.09;5066058;28;20028;-76
2021/06/01 10:57:12;;;;;;;8.10;2.30;;;;;;;28.32;39.93;99833.59;5060459;28;20044;-76
2021/06/01 11:02:22;;;;;;;5.72;1.80;;;;;;;28.58;40.16;99828.31;5052671;28;20029;-76
2021/06/01 11:05:10;;;;;;;4.22;2.00;;;;;;;28.71;39.00;99832.97;5066118;28;20026;-76
2021/06/01 11:07:55;;;;;;;5.32;1.80;;;;;;;28.93;39.21;99833.41;5045280;28;20037;-76
2021/06/01 11:10:43;;;;;;;5.40;1.77;;;;;;;29.08;38.94;99822.53;5043942;28;20060;-76
2021/06/01 11:13:09;;;;;;;4.60;1.80;;;;;;;29.24;38.99;99829.59;5059533;28;20036;-76
2021/06/01 11:15:36;;;;;;;6.00;1.80;;;;;;;29.45;38.26;99822.63;5057390;28;20091;-75
2021/06/01 11:18:16;;;;;;;5.22;1.83;;;;;;;29.61;38.83;99829.25;5062098;28;20036;-75
2021/06/01 11:35:24;;;;;;;3.10;1.80;;;;;;;30.35;37.53;99807.97;5058419;28;20033;-75
2021/06/01 11:40:31;;;;;;;4.93;1.98;;;;;;;30.49;37.09;99807.63;5062812;28;20382;-76
2021/06/01 11:43:10;;;;;;;4.60;2.20;;;;;;;30.52;36.42;99805.13;5056565;28;20108;-75
2021/06/01 11:46:15;;;;;;;2.95;2.10;;;;;;;30.65;36.51;99794.56;5048956;28;20096;-76
2021/06/01 11:51:14;;;;;;;4.72;2.10;;;;;;;30.62;36.13;99799.13;5062824;28;20032;-76
2021/06/01 11:53:54;;;;;;;4.70;1.70;;;;;;;30.68;37.05;99799.38;5048597;28;20029;-75
2021/06/01 11:56:39;;;;;;;5.57;1.80;;;;;;;30.83;36.62;99794.91;5046558;28;20029;-76
2021/06/01 12:18:14;;;;;;;4.68;2.05;;;;;;;31.34;36.45;99788.56;5080574;28;20024;-76
2021/06/01 12:20:39;;;;;;;3.53;1.90;;;;;;;31.18;37.17;99780.84;5058500;28;20036;-76
2021/06/01 12:23:25;;;;;;;3.42;1.60;;;;;;;31.28;36.49;99790.38;5045519;28;20037;-75
2021/06/01 12:26:35;;;;;;;3.58;1.77;;;;;;;31.30;38.89;99782.94;5028216;28;20381;-76
2021/06/01 12:32:18;;;;;;;3.90;1.77;;;;;;;31.50;37.50;99777.06;5098087;28;20504;-75
2021/06/01 13:21:45;;;;;;;2.28;1.20;;;;;;;32.32;35.46;99752.75;5059043;28;20032;-75
2021/06/01 13:30:13;;;;;;;1.67;1.27;;;;;;;32.42;35.80;99757.34;5057556;28;20032;-76
2021/06/01 13:36:20;;;;;;;2.40;1.20;;;;;;;32.50;35.29;99753.00;5066536;28;20397;-76
2021/06/01 13:38:23;;;;;;;2.95;1.40;;;;;;;32.52;35.25;99749.66;5051764;28;20060;-76
2021/06/01 13:47:06;;;;;;;4.57;1.35;;;;;;;32.65;34.16;99750.41;5056496;28;20090;-75
2021/06/01 13:52:28;;;;;;;1.90;1.27;;;;;;;32.71;35.02;99737.88;5061779;28;20036;-76
2021/06/01 13:55:14;;;;;;;2.78;1.40;;;;;;;32.76;35.17;99739.34;5052894;28;20029;-76
2021/06/01 13:57:59;;;;;;;2.65;1.30;;;;;;;32.86;34.71;99740.25;5058322;28;20037;-76
2021/06/01 14:28:37;;;;;;;4.35;1.30;;;;;;;32.88;34.85;99737.72;5054478;28;20029;-72